sensor_id;sensor_type;location;lat;lon;timestamp;pressure;altitude;pressure_sealevel;temperature;humidity
31681;BME280;18281;51.364;9.566;2022-12-05T00:01:31;100032.78;;;-1.28;100.00
31681;BME280;18281;51.364;9.566;2022-12-05T00:04:00;100024.22;;;-1.34;100.00
31681;BME280;18281;51.364;9.566;2022-12-05T00:06:28;100024.22;;;-1.32;100.00
31681;BME280;18281;51.364;9.566;2022-12-05T00:08:54;100025.97;;;-1.39;100.00
31681;BME280;18281;51.364;9.566;2022-12-05T00:11:22;100026.81;;;-1.37;100.00
31681;BME280;18281;51.364;9.566;2022-12-05T00:13:48;100021.69;;;-1.38;100.00
31681;BME280;18281;51.364;9.566;2022-12-05T00:16:16;100018.22;;;-1.34;100.00
31681;BME280;18281;51.364;9.566;2022-12-05T00:18:43;100025.94;;;-1.37;100.00
31681;BME280;18281;51.364;9.566;2022-12-05T00:21:29;100021.69;;;-1.37;100.00
31681;BME280;18281;51.364;9.566;2022-12-05T00:23:56;100022.53;;;-1.38;100.00
31681;BME280;18281;51.364;9.566;2022-12-05T00:26:21;100016.53;;;-1.41;100.00
31681;BME280;18281;51.364;9.566;2022-12-05T00:28:47;100026.00;;;-1.48;100.00
31681;BME280;18281;51.364;9.566;2022-12-05T00:31:15;100024.25;;;-1.38;100.00
31681;BME280;18281;51.364;9.566;2022-12-05T00:33:41;100020.84;;;-1.42;100.00
31681;BME280;18281;51.364;9.566;2022-12-05T00:36:15;100017.34;;;-1.35;100.00
31681;BME280;18281;51.364;9.566;2022-12-05T00:38:42;100011.38;;;-1.41;100.00
31681;BME280;18281;51.364;9.566;2022-12-05T00:41:10;100013.94;;;-1.40;100.00
31681;BME280;18281;51.364;9.566;2022-12-05T00:43:36;100016.53;;;-1.41;100.00
31681;BME280;18281;51.364;9.566;2022-12-05T00:46:04;100019.09;;;-1.40;100.00
31681;BME280;18281;51.364;9.566;2022-12-05T00:48:30;100017.41;;;-1.41;100.00
31681;BME280;18281;51.364;9.566;2022-12-05T00:51:04;100022.53;;;-1.36;100.00
31681;BME280;18281;51.364;9.566;2022-12-05T00:53:30;100013.91;;;-1.32;100.00
31681;BME280;18281;51.364;9.566;2022-12-05T00:56:01;100010.56;;;-1.43;100.00
31681;BME280;18281;51.364;9.566;2022-12-05T00:58:28;100019.09;;;-1.35;100.00
31681;BME280;18281;51.364;9.566;2022-12-05T01:00:53;100024.28;;;-1.44;100.00
31681;BME280;18281;51.364;9.566;2022-12-05T01:03:19;100027.66;;;-1.36;100.00
31681;BME280;18281;51.364;9.566;2022-12-05T01:05:44;100013.91;;;-1.29;100.00
31681;BME280;18281;51.364;9.566;2022-12-05T01:08:10;100013.94;;;-1.37;100.00
31681;BME280;18281;51.364;9.566;2022-12-05T01:10:35;100015.66;;;-1.39;100.00
31681;BME280;18281;51.364;9.566;2022-12-05T01:13:01;100019.13;;;-1.38;100.00
31681;BME280;18281;51.364;9.566;2022-12-05T01:15:26;100019.97;;;-1.38;100.00
31681;BME280;18281;51.364;9.566;2022-12-05T01:17:51;100019.13;;;-1.38;100.00
31681;BME280;18281;51.364;9.566;2022-12-05T01:20:17;100025.09;;;-1.36;100.00
31681;BME280;18281;51.364;9.566;2022-12-05T01:22:42;100022.50;;;-1.33;100.00
31681;BME280;18281;51.364;9.566;2022-12-05T01:25:08;100022.50;;;-1.30;100.00
31681;BME280;18281;51.364;9.566;2022-12-05T01:27:33;100024.25;;;-1.41;100.00
31681;BME280;18281;51.364;9.566;2022-12-05T01:29:58;100024.25;;;-1.37;100.00
31681;BME280;18281;51.364;9.566;2022-12-05T01:32:24;100019.06;;;-1.34;100.00
31681;BME280;18281;51.364;9.566;2022-12-05T01:34:49;100017.34;;;-1.33;100.00
31681;BME280;18281;51.364;9.566;2022-12-05T01:37:14;100019.06;;;-1.34;100.00
31681;BME280;18281;51.364;9.566;2022-12-05T01:39:40;100018.22;;;-1.37;100.00
31681;BME280;18281;51.364;9.566;2022-12-05T01:42:05;100028.53;;;-1.37;100.00
31681;BME280;18281;51.364;9.566;2022-12-05T01:46:56;100029.38;;;-1.34;100.00
31681;BME280;18281;51.364;9.566;2022-12-05T01:49:32;100030.25;;;-1.36;100.00
31681;BME280;18281;51.364;9.566;2022-12-05T01:52:06;100038.84;;;-1.36;100.00
31681;BME280;18281;51.364;9.566;2022-12-05T01:54:34;100035.38;;;-1.33;100.00
31681;BME280;18281;51.364;9.566;2022-12-05T01:57:05;100031.09;;;-1.34;100.00
31681;BME280;18281;51.364;9.566;2022-12-05T01:59:35;100036.25;;;-1.37;100.00
31681;BME280;18281;51.364;9.566;2022-12-05T02:02:03;100027.63;;;-1.33;100.00
31681;BME280;18281;51.364;9.566;2022-12-05T02:04:29;100022.50;;;-1.33;100.00
31681;BME280;18281;51.364;9.566;2022-12-05T02:06:54;100025.06;;;-1.33;100.00
31681;BME280;18281;51.364;9.566;2022-12-05T02:09:21;100024.16;;;-1.24;100.00
31681;BME280;18281;51.364;9.566;2022-12-05T02:11:52;100028.50;;;-1.29;100.00
31681;BME280;18281;51.364;9.566;2022-12-05T02:17:15;100034.53;;;-1.35;100.00
31681;BME280;18281;51.364;9.566;2022-12-05T02:28:45;100038.84;;;-1.34;100.00
31681;BME280;18281;51.364;9.566;2022-12-05T02:33:48;100036.25;;;-1.37;100.00
31681;BME280;18281;51.364;9.566;2022-12-05T02:36:24;100037.16;;;-1.44;100.00
31681;BME280;18281;51.364;9.566;2022-12-05T02:39:03;100029.44;;;-1.43;100.00
31681;BME280;18281;51.364;9.566;2022-12-05T02:41:34;100030.28;;;-1.44;100.00
31681;BME280;18281;51.364;9.566;2022-12-05T02:44:13;100033.75;;;-1.45;100.00
31681;BME280;18281;51.364;9.566;2022-12-05T02:46:41;100027.69;;;-1.38;100.00
31681;BME280;18281;51.364;9.566;2022-12-05T02:49:12;100022.63;;;-1.56;100.00
31681;BME280;18281;51.364;9.566;2022-12-05T02:51:42;100025.16;;;-1.45;100.00
31681;BME280;18281;51.364;9.566;2022-12-05T02:54:16;100026.84;;;-1.43;100.00
31681;BME280;18281;51.364;9.566;2022-12-05T02:56:45;100022.59;;;-1.49;100.00
31681;BME280;18281;51.364;9.566;2022-12-05T02:59:11;100026.00;;;-1.47;100.00
31681;BME280;18281;51.364;9.566;2022-12-05T03:01:36;100013.13;;;-1.47;100.00
31681;BME280;18281;51.364;9.566;2022-12-05T03:04:03;100024.31;;;-1.48;100.00
31681;BME280;18281;51.364;9.566;2022-12-05T03:06:33;100014.91;;;-1.52;100.00
31681;BME280;18281;51.364;9.566;2022-12-05T03:09:06;100013.16;;;-1.48;100.00
31681;BME280;18281;51.364;9.566;2022-12-05T03:11:41;100010.56;;;-1.47;100.00
31681;BME280;18281;51.364;9.566;2022-12-05T03:14:12;100013.16;;;-1.50;100.00
31681;BME280;18281;51.364;9.566;2022-12-05T03:16:46;100008.88;;;-1.48;100.00
31681;BME280;18281;51.364;9.566;2022-12-05T03:19:24;100014.00;;;-1.46;100.00
31681;BME280;18281;51.364;9.566;2022-12-05T03:21:55;100020.00;;;-1.45;100.00
31681;BME280;18281;51.364;9.566;2022-12-05T03:24:23;100016.56;;;-1.46;100.00
31681;BME280;18281;51.364;9.566;2022-12-05T03:27:16;100014.88;;;-1.47;100.00
31681;BME280;18281;51.364;9.566;2022-12-05T03:29:57;100020.03;;;-1.49;100.00
31681;BME280;18281;51.364;9.566;2022-12-05T03:38:15;100014.88;;;-1.49;100.00
31681;BME280;18281;51.364;9.566;2022-12-05T03:41:09;100019.19;;;-1.49;100.00
31681;BME280;18281;51.364;9.566;2022-12-05T03:46:34;100021.75;;;-1.49;100.00
31681;BME280;18281;51.364;9.566;2022-12-05T03:51:48;100020.03;;;-1.50;100.00
31681;BME280;18281;51.364;9.566;2022-12-05T03:54:24;100025.19;;;-1.52;100.00
31681;BME280;18281;51.364;9.566;2022-12-05T04:03:02;100029.50;;;-1.54;100.00
31681;BME280;18281;51.364;9.566;2022-12-05T04:08:27;100033.81;;;-1.56;100.00
31681;BME280;18281;51.364;9.566;2022-12-05T04:10:59;100036.38;;;-1.56;100.00
31681;BME280;18281;51.364;9.566;2022-12-05T04:15:58;100036.38;;;-1.56;100.00
31681;BME280;18281;51.364;9.566;2022-12-05T04:19:04;100034.69;;;-1.58;100.00
31681;BME280;18281;51.364;9.566;2022-12-05T04:21:36;100040.69;;;-1.59;100.00
31681;BME280;18281;51.364;9.566;2022-12-05T04:24:14;100040.69;;;-1.64;100.00
31681;BME280;18281;51.364;9.566;2022-12-05T04:30:13;100038.09;;;-1.58;100.00
31681;BME280;18281;51.364;9.566;2022-12-05T04:35:58;100048.41;;;-1.59;100.00
31681;BME280;18281;51.364;9.566;2022-12-05T04:38:31;100047.53;;;-1.61;100.00
31681;BME280;18281;51.364;9.566;2022-12-05T04:41:02;100052.69;;;-1.63;100.00
31681;BME280;18281;51.364;9.566;2022-12-05T04:43:32;100053.56;;;-1.61;100.00
31681;BME280;18281;51.364;9.566;2022-12-05T04:45:59;100047.56;;;-1.63;100.00
31681;BME280;18281;51.364;9.566;2022-12-05T04:48:28;100055.31;;;-1.68;100.00
31681;BME280;18281;51.364;9.566;2022-12-05T04:50:55;100055.31;;;-1.66;100.00
31681;BME280;18281;51.364;9.566;2022-12-05T04:53:25;100056.16;;;-1.67;100.00
31681;BME280;18281;51.364;9.566;2022-12-05T04:55:53;100058.75;;;-1.69;100.00
31681;BME280;18281;51.364;9.566;2022-12-05T04:58:22;100047.59;;;-1.69;100.00
31681;BME280;18281;51.364;9.566;2022-12-05T05:03:41;100056.16;;;-1.69;100.00
31681;BME280;18281;51.364;9.566;2022-12-05T05:06:10;100047.59;;;-1.69;100.00
31681;BME280;18281;51.364;9.566;2022-12-05T05:08:36;100051.88;;;-1.71;100.00
31681;BME280;18281;51.364;9.566;2022-12-05T05:11:09;100057.88;;;-1.71;100.00
31681;BME280;18281;51.364;9.566;2022-12-05T05:13:39;100054.47;;;-1.74;100.00
31681;BME280;18281;51.364;9.566;2022-12-05T05:16:05;100052.75;;;-1.74;100.00
31681;BME280;18281;51.364;9.566;2022-12-05T05:18:31;100057.91;;;-1.74;100.00
31681;BME280;18281;51.364;9.566;2022-12-05T05:20:56;100058.75;;;-1.76;100.00
31681;BME280;18281;51.364;9.566;2022-12-05T05:23:22;100060.50;;;-1.78;100.00
31681;BME280;18281;51.364;9.566;2022-12-05T05:25:54;100063.94;;;-1.79;100.00
31681;BME280;18281;51.364;9.566;2022-12-05T05:28:21;100069.09;;;-1.79;100.00
31681;BME280;18281;51.364;9.566;2022-12-05T05:30:47;100070.78;;;-1.80;100.00
31681;BME280;18281;51.364;9.566;2022-12-05T05:33:13;100063.97;;;-1.83;100.00
31681;BME280;18281;51.364;9.566;2022-12-05T05:35:39;100068.22;;;-1.82;100.00
31681;BME280;18281;51.364;9.566;2022-12-05T05:38:04;100070.78;;;-1.69;100.00
31681;BME280;18281;51.364;9.566;2022-12-05T05:40:30;100077.31;;;-0.05;100.00
31681;BME280;18281;51.364;9.566;2022-12-05T05:42:55;100090.44;;;0.51;100.00
31681;BME280;18281;51.364;9.566;2022-12-05T05:45:20;100090.34;;;0.59;100.00
31681;BME280;18281;51.364;9.566;2022-12-05T05:47:49;100094.13;;;0.30;100.00
31681;BME280;18281;51.364;9.566;2022-12-05T05:50:15;100090.91;;;0.11;100.00
31681;BME280;18281;51.364;9.566;2022-12-05T05:52:40;100085.97;;;-0.13;100.00
31681;BME280;18281;51.364;9.566;2022-12-05T05:55:07;100087.16;;;-0.44;100.00
31681;BME280;18281;51.364;9.566;2022-12-05T05:57:33;100090.25;;;-0.08;100.00
31681;BME280;18281;51.364;9.566;2022-12-05T05:59:58;100097.19;;;-0.15;100.00
31681;BME280;18281;51.364;9.566;2022-12-05T06:02:24;100093.81;;;-0.22;100.00
31681;BME280;18281;51.364;9.566;2022-12-05T06:04:49;100085.44;;;-0.45;100.00
31681;BME280;18281;51.364;9.566;2022-12-05T06:07:14;100086.47;;;-0.68;100.00
31681;BME280;18281;51.364;9.566;2022-12-05T06:09:40;100087.44;;;-0.83;100.00
31681;BME280;18281;51.364;9.566;2022-12-05T06:12:05;100088.38;;;-0.93;100.00
31681;BME280;18281;51.364;9.566;2022-12-05T06:14:31;100091.88;;;-1.02;100.00
31681;BME280;18281;51.364;9.566;2022-12-05T06:16:56;100092.75;;;-1.08;100.00
31681;BME280;18281;51.364;9.566;2022-12-05T06:19:22;100087.66;;;-1.12;100.00
31681;BME280;18281;51.364;9.566;2022-12-05T06:21:48;100086.81;;;-1.18;100.00
31681;BME280;18281;51.364;9.566;2022-12-05T06:24:14;100092.88;;;-1.25;100.00
31681;BME280;18281;51.364;9.566;2022-12-05T06:26:40;100088.59;;;-1.27;100.00
31681;BME280;18281;51.364;9.566;2022-12-05T06:29:05;100091.19;;;-1.32;100.00
31681;BME280;18281;51.364;9.566;2022-12-05T06:31:31;100089.47;;;-1.35;100.00
31681;BME280;18281;51.364;9.566;2022-12-05T06:34:02;100090.34;;;-1.39;100.00
31681;BME280;18281;51.364;9.566;2022-12-05T06:36:28;100092.94;;;-1.40;100.00
31681;BME280;18281;51.364;9.566;2022-12-05T06:38:55;100095.53;;;-1.42;100.00
31681;BME280;18281;51.364;9.566;2022-12-05T06:41:21;100101.53;;;-1.44;100.00
31681;BME280;18281;51.364;9.566;2022-12-05T06:43:51;100099.81;;;-1.45;100.00
31681;BME280;18281;51.364;9.566;2022-12-05T06:46:17;100097.28;;;-1.50;100.00
31681;BME280;18281;51.364;9.566;2022-12-05T06:48:42;100104.13;;;-1.51;100.00
31681;BME280;18281;51.364;9.566;2022-12-05T06:51:10;100100.72;;;-1.51;100.00
31681;BME280;18281;51.364;9.566;2022-12-05T06:53:36;100108.44;;;-1.53;100.00
31681;BME280;18281;51.364;9.566;2022-12-05T06:56:03;100104.16;;;-1.55;100.00
31681;BME280;18281;51.364;9.566;2022-12-05T06:58:30;100098.16;;;-1.59;100.00
31681;BME280;18281;51.364;9.566;2022-12-05T07:00:55;100098.09;;;-1.47;100.00
31681;BME280;18281;51.364;9.566;2022-12-05T07:03:39;100107.59;;;-1.50;100.00
31681;BME280;18281;51.364;9.566;2022-12-05T07:06:06;100105.03;;;-1.52;100.00
31681;BME280;18281;51.364;9.566;2022-12-05T07:08:32;100116.16;;;-1.51;100.00
31681;BME280;18281;51.364;9.566;2022-12-05T07:10:57;100123.03;;;-1.55;100.00
31681;BME280;18281;51.364;9.566;2022-12-05T07:13:23;100109.31;;;-1.54;100.00
31681;BME280;18281;51.364;9.566;2022-12-05T07:15:49;100111.03;;;-1.57;100.00
31681;BME280;18281;51.364;9.566;2022-12-05T07:18:15;100116.19;;;-1.59;100.00
31681;BME280;18281;51.364;9.566;2022-12-05T07:20:41;100118.81;;;-1.65;100.00
31681;BME280;18281;51.364;9.566;2022-12-05T07:23:07;100117.06;;;-1.63;100.00
31681;BME280;18281;51.364;9.566;2022-12-05T07:25:33;100121.34;;;-1.67;100.00
31681;BME280;18281;51.364;9.566;2022-12-05T07:27:58;100117.09;;;-1.68;100.00
31681;BME280;18281;51.364;9.566;2022-12-05T07:30:24;100123.09;;;-1.69;100.00
31681;BME280;18281;51.364;9.566;2022-12-05T07:32:49;100126.53;;;-1.71;100.00
31681;BME280;18281;51.364;9.566;2022-12-05T07:35:14;100127.41;;;-1.75;100.00
31681;BME280;18281;51.364;9.566;2022-12-05T07:37:46;100126.56;;;-1.74;100.00
31681;BME280;18281;51.364;9.566;2022-12-05T07:40:12;100129.97;;;-1.74;100.00
31681;BME280;18281;51.364;9.566;2022-12-05T07:42:37;100128.25;;;-1.73;100.00
31681;BME280;18281;51.364;9.566;2022-12-05T07:45:03;100131.72;;;-1.76;100.00
31681;BME280;18281;51.364;9.566;2022-12-05T07:47:29;100131.72;;;-1.76;100.00
31681;BME280;18281;51.364;9.566;2022-12-05T07:49:55;100132.56;;;-1.77;100.00
31681;BME280;18281;51.364;9.566;2022-12-05T07:52:20;100134.28;;;-1.76;100.00
31681;BME280;18281;51.364;9.566;2022-12-05T07:54:45;100132.56;;;-1.75;100.00
31681;BME280;18281;51.364;9.566;2022-12-05T07:57:11;100134.25;;;-1.77;100.00
31681;BME280;18281;51.364;9.566;2022-12-05T07:59:36;100139.44;;;-1.76;100.00
31681;BME280;18281;51.364;9.566;2022-12-05T08:02:01;100141.97;;;-1.77;100.00
31681;BME280;18281;51.364;9.566;2022-12-05T08:04:27;100145.44;;;-1.78;100.00
31681;BME280;18281;51.364;9.566;2022-12-05T08:06:52;100151.44;;;-1.78;100.00
31681;BME280;18281;51.364;9.566;2022-12-05T08:09:17;100155.75;;;-1.78;100.00
31681;BME280;18281;51.364;9.566;2022-12-05T08:11:43;100155.75;;;-1.78;100.00
31681;BME280;18281;51.364;9.566;2022-12-05T08:14:08;100160.00;;;-1.77;100.00
31681;BME280;18281;51.364;9.566;2022-12-05T08:16:34;100160.88;;;-1.78;100.00
31681;BME280;18281;51.364;9.566;2022-12-05T08:19:05;100169.47;;;-1.81;100.00
31681;BME280;18281;51.364;9.566;2022-12-05T08:21:31;100172.03;;;-1.79;100.00
31681;BME280;18281;51.364;9.566;2022-12-05T08:23:57;100172.88;;;-1.79;100.00
31681;BME280;18281;51.364;9.566;2022-12-05T08:26:30;100171.16;;;-1.82;100.00
31681;BME280;18281;51.364;9.566;2022-12-05T08:28:58;100178.03;;;-1.81;100.00
31681;BME280;18281;51.364;9.566;2022-12-05T08:31:26;100180.59;;;-1.82;100.00
31681;BME280;18281;51.364;9.566;2022-12-05T08:33:52;100180.59;;;-1.82;100.00
31681;BME280;18281;51.364;9.566;2022-12-05T08:36:18;100181.47;;;-1.82;100.00
31681;BME280;18281;51.364;9.566;2022-12-05T08:38:44;100181.47;;;-1.83;100.00
31681;BME280;18281;51.364;9.566;2022-12-05T08:41:13;100186.63;;;-1.83;100.00
31681;BME280;18281;51.364;9.566;2022-12-05T08:43:38;100190.91;;;-1.73;100.00
31681;BME280;18281;51.364;9.566;2022-12-05T08:46:05;100198.59;;;-1.68;100.00
31681;BME280;18281;51.364;9.566;2022-12-05T08:48:31;100197.75;;;-1.70;100.00
31681;BME280;18281;51.364;9.566;2022-12-05T08:50:57;100199.44;;;-1.71;100.00
31681;BME280;18281;51.364;9.566;2022-12-05T08:53:23;100205.41;;;-1.53;100.00
31681;BME280;18281;51.364;9.566;2022-12-05T08:55:50;100207.91;;;-1.18;100.00
31681;BME280;18281;51.364;9.566;2022-12-05T08:58:15;100208.75;;;-1.16;100.00
31681;BME280;18281;51.364;9.566;2022-12-05T09:00:40;100208.72;;;-1.09;100.00
31681;BME280;18281;51.364;9.566;2022-12-05T09:03:08;100211.31;;;-1.12;100.00
31681;BME280;18281;51.364;9.566;2022-12-05T09:05:34;100212.91;;;-0.88;100.00
31681;BME280;18281;51.364;9.566;2022-12-05T09:07:59;100208.66;;;-0.94;100.00
31681;BME280;18281;51.364;9.566;2022-12-05T09:10:25;100212.09;;;-0.93;100.00
31681;BME280;18281;51.364;9.566;2022-12-05T09:12:50;100219.06;;;0.16;100.00
31681;BME280;18281;51.364;9.566;2022-12-05T09:15:17;100226.31;;;0.67;100.00
31681;BME280;18281;51.364;9.566;2022-12-05T09:17:43;100227.28;;;0.56;100.00
31681;BME280;18281;51.364;9.566;2022-12-05T09:20:08;100218.91;;;0.30;100.00
31681;BME280;18281;51.364;9.566;2022-12-05T09:22:36;100227.66;;;0.17;100.00
31681;BME280;18281;51.364;9.566;2022-12-05T09:25:01;100213.19;;;-0.01;100.00
31681;BME280;18281;51.364;9.566;2022-12-05T09:27:27;100216.72;;;-0.11;100.00
31681;BME280;18281;51.364;9.566;2022-12-05T09:29:53;100212.44;;;-0.16;100.00
31681;BME280;18281;51.364;9.566;2022-12-05T09:32:18;100216.78;;;-0.21;100.00
31681;BME280;18281;51.364;9.566;2022-12-05T09:34:43;100208.22;;;-0.26;100.00
31681;BME280;18281;51.364;9.566;2022-12-05T09:37:09;100211.69;;;-0.27;100.00
31681;BME280;18281;51.364;9.566;2022-12-05T09:39:34;100215.13;;;-0.28;100.00
31681;BME280;18281;51.364;9.566;2022-12-05T09:42:06;100214.31;;;-0.33;100.00
31681;BME280;18281;51.364;9.566;2022-12-05T09:47:14;100210.78;;;-0.26;100.00
31681;BME280;18281;51.364;9.566;2022-12-05T09:49:55;100211.72;;;-0.33;100.00
31681;BME280;18281;51.364;9.566;2022-12-05T09:52:26;100211.72;;;-0.33;100.00
31681;BME280;18281;51.364;9.566;2022-12-05T09:54:52;100213.47;;;-0.34;100.00
31681;BME280;18281;51.364;9.566;2022-12-05T09:57:25;100213.44;;;-0.32;100.00
31681;BME280;18281;51.364;9.566;2022-12-05T09:59:54;100211.69;;;-0.30;100.00
31681;BME280;18281;51.364;9.566;2022-12-05T10:02:43;100203.97;;;-0.33;100.00
31681;BME280;18281;51.364;9.566;2022-12-05T10:08:02;100200.53;;;-0.32;100.00
31681;BME280;18281;51.364;9.566;2022-12-05T10:10:33;100203.09;;;-0.31;100.00
31681;BME280;18281;51.364;9.566;2022-12-05T10:13:15;100195.38;;;-0.31;100.00
31681;BME280;18281;51.364;9.566;2022-12-05T10:15:47;100191.13;;;-0.36;100.00
31681;BME280;18281;51.364;9.566;2022-12-05T10:18:28;100183.34;;;-0.35;100.00
31681;BME280;18281;51.364;9.566;2022-12-05T10:21:01;100182.50;;;-0.35;100.00
31681;BME280;18281;51.364;9.566;2022-12-05T10:23:37;100185.09;;;-0.38;100.00
31681;BME280;18281;51.364;9.566;2022-12-05T10:26:06;100181.63;;;-0.34;100.00
31681;BME280;18281;51.364;9.566;2022-12-05T10:28:36;100185.97;;;-0.36;100.00
31681;BME280;18281;51.364;9.566;2022-12-05T10:31:08;100179.06;;;-0.37;100.00
31681;BME280;18281;51.364;9.566;2022-12-05T10:33:39;100188.53;;;-0.36;100.00
31681;BME280;18281;51.364;9.566;2022-12-05T10:36:13;100176.44;;;-0.28;100.00
31681;BME280;18281;51.364;9.566;2022-12-05T10:38:41;100178.19;;;-0.33;100.00
31681;BME280;18281;51.364;9.566;2022-12-05T10:41:09;100178.16;;;-0.30;100.00
31681;BME280;18281;51.364;9.566;2022-12-05T10:43:36;100178.19;;;-0.33;100.00
31681;BME280;18281;51.364;9.566;2022-12-05T10:46:04;100184.25;;;-0.39;100.00
31681;BME280;18281;51.364;9.566;2022-12-05T10:48:34;100182.66;;;-0.54;100.00
31681;BME280;18281;51.364;9.566;2022-12-05T10:51:00;100191.31;;;-0.66;100.00
31681;BME280;18281;51.364;9.566;2022-12-05T10:53:31;100193.94;;;-0.75;100.00
31681;BME280;18281;51.364;9.566;2022-12-05T10:56:02;100193.13;;;-0.82;100.00
31681;BME280;18281;51.364;9.566;2022-12-05T10:58:30;100193.13;;;-0.83;100.00
31681;BME280;18281;51.364;9.566;2022-12-05T11:01:07;100192.28;;;-0.87;100.00
31681;BME280;18281;51.364;9.566;2022-12-05T11:03:36;100188.88;;;-0.90;100.00
31681;BME280;18281;51.364;9.566;2022-12-05T11:06:19;100187.19;;;-0.91;100.00
31681;BME280;18281;51.364;9.566;2022-12-05T11:08:51;100187.16;;;-0.94;100.00
31681;BME280;18281;51.364;9.566;2022-12-05T11:11:23;100200.06;;;-0.96;100.00
31681;BME280;18281;51.364;9.566;2022-12-05T11:13:57;100203.50;;;-0.97;100.00
31681;BME280;18281;51.364;9.566;2022-12-05T11:18:50;100206.09;;;-1.00;100.00
31681;BME280;18281;51.364;9.566;2022-12-05T11:21:15;100203.53;;;-1.02;100.00
31681;BME280;18281;51.364;9.566;2022-12-05T11:23:44;100195.81;;;-1.03;100.00
31681;BME280;18281;51.364;9.566;2022-12-05T11:28:43;100195.03;;;-1.24;100.00
31681;BME280;18281;51.364;9.566;2022-12-05T11:33:40;100192.47;;;-1.27;100.00
31681;BME280;18281;51.364;9.566;2022-12-05T11:36:13;100195.06;;;-1.28;100.00
31681;BME280;18281;51.364;9.566;2022-12-05T11:38:42;100197.66;;;-1.30;100.00
31681;BME280;18281;51.364;9.566;2022-12-05T12:04:28;100201.91;;;-1.26;100.00
31681;BME280;18281;51.364;9.566;2022-12-05T12:07:05;100202.75;;;-1.24;100.00
31681;BME280;18281;51.364;9.566;2022-12-05T12:09:55;100198.47;;;-1.23;100.00
31681;BME280;18281;51.364;9.566;2022-12-05T12:26:44;100199.28;;;-1.14;100.00
31681;BME280;18281;51.364;9.566;2022-12-05T12:29:46;100192.41;;;-1.11;100.00
31681;BME280;18281;51.364;9.566;2022-12-05T12:32:38;100198.44;;;-1.12;100.00
31681;BME280;18281;51.364;9.566;2022-12-05T12:42:50;100196.72;;;-1.09;100.00
31681;BME280;18281;51.364;9.566;2022-12-05T12:45:47;100204.47;;;-1.21;100.00
31681;BME280;18281;51.364;9.566;2022-12-05T12:48:29;100196.72;;;-1.20;100.00
31681;BME280;18281;51.364;9.566;2022-12-05T12:51:00;100201.88;;;-1.21;100.00
31681;BME280;18281;51.364;9.566;2022-12-05T12:56:33;100201.88;;;-1.20;100.00
31681;BME280;18281;51.364;9.566;2022-12-05T12:59:28;100200.19;;;-1.21;100.00
31681;BME280;18281;51.364;9.566;2022-12-05T13:02:11;100207.06;;;-1.18;100.00
31681;BME280;18281;51.364;9.566;2022-12-05T13:05:03;100195.03;;;-1.21;100.00
31681;BME280;18281;51.364;9.566;2022-12-05T13:07:31;100201.91;;;-1.18;100.00
31681;BME280;18281;51.364;9.566;2022-12-05T13:12:45;100194.16;;;-1.20;100.00
31681;BME280;18281;51.364;9.566;2022-12-05T13:15:30;100195.88;;;-1.16;100.00
31681;BME280;18281;51.364;9.566;2022-12-05T13:17:57;100194.16;;;-1.17;100.00
31681;BME280;18281;51.364;9.566;2022-12-05T13:20:26;100180.41;;;-1.19;100.00
31681;BME280;18281;51.364;9.566;2022-12-05T13:22:55;100190.72;;;-1.16;100.00
31681;BME280;18281;51.364;9.566;2022-12-05T13:25:23;100185.56;;;-1.16;100.00
31681;BME280;18281;51.364;9.566;2022-12-05T13:27:55;100190.72;;;-1.12;100.00
31681;BME280;18281;51.364;9.566;2022-12-05T13:30:22;100193.28;;;-1.14;100.00
31681;BME280;18281;51.364;9.566;2022-12-05T13:32:54;100189.88;;;-1.18;100.00
31681;BME280;18281;51.364;9.566;2022-12-05T13:35:29;100190.72;;;-1.12;100.00
31681;BME280;18281;51.364;9.566;2022-12-05T13:38:29;100188.97;;;-1.14;100.00
31681;BME280;18281;51.364;9.566;2022-12-05T13:41:14;100194.97;;;-1.13;100.00
31681;BME280;18281;51.364;9.566;2022-12-05T13:43:59;100190.72;;;-1.19;100.00
31681;BME280;18281;51.364;9.566;2022-12-05T13:46:29;100194.97;;;-1.13;100.00
31681;BME280;18281;51.364;9.566;2022-12-05T13:49:00;100195.88;;;-1.14;100.00
31681;BME280;18281;51.364;9.566;2022-12-05T13:51:39;100188.13;;;-1.14;100.00
31681;BME280;18281;51.364;9.566;2022-12-05T13:54:16;100191.53;;;-1.12;100.00
31681;BME280;18281;51.364;9.566;2022-12-05T13:56:56;100196.72;;;-1.09;100.00
31681;BME280;18281;51.364;9.566;2022-12-05T14:07:41;100195.00;;;-1.15;100.00
31681;BME280;18281;51.364;9.566;2022-12-05T14:10:09;100202.72;;;-1.13;100.00
31681;BME280;18281;51.364;9.566;2022-12-05T14:12:57;100200.16;;;-1.18;100.00
31681;BME280;18281;51.364;9.566;2022-12-05T14:15:37;100194.97;;;-1.13;100.00
31681;BME280;18281;51.364;9.566;2022-12-05T14:23:39;100202.41;;;0.47;100.00
31681;BME280;18281;51.364;9.566;2022-12-05T14:29:30;100212.97;;;0.24;100.00
31681;BME280;18281;51.364;9.566;2022-12-05T14:32:10;100205.44;;;0.00;100.00
31681;BME280;18281;51.364;9.566;2022-12-05T14:35:13;100204.75;;;-0.20;100.00
31681;BME280;18281;51.364;9.566;2022-12-05T14:37:53;100204.84;;;-0.31;100.00
31681;BME280;18281;51.364;9.566;2022-12-05T14:40:24;100211.78;;;-0.41;100.00
31681;BME280;18281;51.364;9.566;2022-12-05T14:43:05;100213.56;;;-0.49;100.00
31681;BME280;18281;51.364;9.566;2022-12-05T14:45:38;100220.47;;;-0.57;100.00
31681;BME280;18281;51.364;9.566;2022-12-05T14:50:54;100212.81;;;-0.68;100.00
31681;BME280;18281;51.364;9.566;2022-12-05T14:53:25;100213.75;;;-0.82;100.00
31681;BME280;18281;51.364;9.566;2022-12-05T14:58:36;100218.06;;;-0.88;100.00
31681;BME280;18281;51.364;9.566;2022-12-05T15:01:28;100221.50;;;-0.85;100.00
31681;BME280;18281;51.364;9.566;2022-12-05T15:06:58;100217.22;;;-0.89;100.00
31681;BME280;18281;51.364;9.566;2022-12-05T15:09:30;100217.22;;;-0.90;100.00
31681;BME280;18281;51.364;9.566;2022-12-05T15:11:58;100214.66;;;-0.93;100.00
31681;BME280;18281;51.364;9.566;2022-12-05T15:14:27;100217.28;;;-0.98;100.00